Time;durP1;ratioP1;P1;durP2;ratioP2;P2;SDS_P1;SDS_P2;PMS_P1;PMS_P2;Temp;Humidity;BMP_temperature;BMP_pressure;BME280_temperature;BME280_humidity;BME280_pressure;Samples;Min_cycle;Max_cycle;Signal;HPM_P1;HPM_P2
2023/08/15 04:00:19;;;;;;;8.30;5.55;;;22.40;99.90;;;;;;5947505;23;20018;-65
2023/08/15 04:02:45;;;;;;;6.90;5.57;;;22.30;99.90;;;;;;4973627;28;20042;-64
2023/08/15 04:05:11;;;;;;;10.65;5.70;;;22.30;99.90;;;;;;4973887;28;20027;-65
2023/08/15 04:07:38;;;;;;;10.65;5.55;;;22.20;99.90;;;;;;4964495;28;20035;-64
2023/08/15 04:10:03;;;;;;;;;;;22.20;99.90;;;;;;4958120;28;20041;-64
2023/08/15 04:12:29;;;;;;;11.23;5.32;;;22.10;99.90;;;;;;4957191;28;19906;-64
2023/08/15 04:14:54;;;;;;;;;;;22.10;99.90;;;;;;4975188;28;20034;-66
2023/08/15 04:17:20;;;;;;;10.48;6.20;;;22.00;99.90;;;;;;4974378;28;19934;-65
2023/08/15 04:19:46;;;;;;;11.15;6.32;;;21.90;99.90;;;;;;4974463;28;20031;-65
2023/08/15 04:22:12;;;;;;;9.48;5.22;;;22.00;99.90;;;;;;4974129;28;20055;-66
2023/08/15 04:24:37;;;;;;;9.73;6.32;;;21.90;99.90;;;;;;4974741;28;20066;-65
2023/08/15 04:27:06;;;;;;;9.02;5.80;;;21.90;99.90;;;;;;4975362;28;20441;-66
2023/08/15 04:29:32;;;;;;;8.48;6.10;;;21.90;99.90;;;;;;4975476;28;20377;-66
2023/08/15 04:31:57;;;;;;;7.40;5.53;;;21.90;99.90;;;;;;4975568;28;20081;-66
2023/08/15 04:34:23;;;;;;;8.43;6.03;;;21.90;99.90;;;;;;4975067;28;20487;-66
2023/08/15 04:36:48;;;;;;;10.23;5.78;;;21.90;99.90;;;;;;4974506;28;20026;-63
2023/08/15 04:39:14;;;;;;;;;;;21.90;99.90;;;;;;4975768;28;20102;-65
2023/08/15 04:41:41;;;;;;;6.95;5.57;;;22.00;99.90;;;;;;4975808;28;19937;-67
2023/08/15 04:44:06;;;;;;;8.65;6.13;;;22.00;99.90;;;;;;4975040;28;20027;-66
2023/08/15 04:46:32;;;;;;;9.93;6.10;;;22.00;99.90;;;;;;4956721;28;20027;-66
2023/08/15 04:48:57;;;;;;;8.13;5.95;;;22.00;99.90;;;;;;4992890;28;20038;-65
2023/08/15 04:51:23;;;;;;;9.80;5.70;;;22.00;99.90;;;;;;4992335;28;20026;-65
2023/08/15 04:53:49;;;;;;;9.95;6.25;;;22.00;99.90;;;;;;4993038;28;20070;-65
2023/08/15 04:56:14;;;;;;;9.45;6.03;;;22.00;99.90;;;;;;4978811;28;20032;-66
2023/08/15 04:58:40;;;;;;;10.13;6.85;;;22.00;99.90;;;;;;4997469;28;20039;-66
2023/08/15 05:01:05;;;;;;;;;;;22.00;99.90;;;;;;4997719;28;20410;-68
2023/08/15 05:03:31;;;;;;;13.82;6.47;;;22.00;99.90;;;;;;4997344;28;20422;-68
2023/08/15 05:05:56;;;;;;;12.40;6.30;;;22.00;99.90;;;;;;4997416;28;20016;-67
2023/08/15 05:08:22;;;;;;;;;;;22.10;99.90;;;;;;4982334;28;20037;-68
2023/08/15 05:10:47;;;;;;;10.13;6.30;;;22.20;99.90;;;;;;4977440;28;19913;-65
2023/08/15 05:13:13;;;;;;;;;;;22.30;99.90;;;;;;4977988;28;20491;-66
2023/08/15 05:15:38;;;;;;;13.55;5.68;;;22.30;99.90;;;;;;4977359;28;19953;-66
2023/08/15 05:18:04;;;;;;;;;;;22.30;99.90;;;;;;4977853;28;20510;-66
2023/08/15 05:20:30;;;;;;;13.20;7.43;;;22.40;99.90;;;;;;4979483;28;19913;-66
2023/08/15 05:22:55;;;;;;;13.90;7.05;;;22.40;99.90;;;;;;4980294;28;20019;-66
2023/08/15 05:25:21;;;;;;;10.20;6.80;;;22.40;99.90;;;;;;4981379;28;20042;-66
2023/08/15 05:27:50;;;;;;;12.82;6.90;;;22.40;99.90;;;;;;4980385;28;20019;-66
2023/08/15 05:30:16;;;;;;;12.68;7.35;;;22.50;99.90;;;;;;4978282;28;20026;-66
2023/08/15 05:32:41;;;;;;;10.27;7.38;;;22.50;99.90;;;;;;4977618;28;20081;-66
2023/08/15 05:35:07;;;;;;;10.73;8.68;;;22.60;99.90;;;;;;4976914;28;20043;-66
2023/08/15 05:37:32;;;;;;;16.30;8.25;;;22.70;99.90;;;;;;4976931;28;20416;-66
2023/08/15 05:39:58;;;;;;;12.95;8.23;;;22.70;99.90;;;;;;4977150;28;20033;-66
2023/08/15 05:42:23;;;;;;;10.48;7.72;;;22.90;99.90;;;;;;4976871;28;20034;-65
2023/08/15 05:44:49;;;;;;;12.93;8.48;;;23.00;99.90;;;;;;4976875;28;20035;-65
2023/08/15 05:47:15;;;;;;;;;;;23.00;99.90;;;;;;4960068;28;20019;-66
2023/08/15 05:49:42;;;;;;;14.27;8.18;;;23.10;99.90;;;;;;4976819;28;20291;-66
2023/08/15 05:52:08;;;;;;;10.40;8.20;;;23.10;99.90;;;;;;4976487;28;20431;-66
2023/08/15 05:54:34;;;;;;;;;;;23.20;99.90;;;;;;4977141;28;20023;-67
2023/08/15 05:56:59;;;;;;;13.18;8.77;;;23.20;99.90;;;;;;4975980;28;20385;-66
2023/08/15 05:59:24;;;;;;;;;;;23.20;99.90;;;;;;4977261;28;20574;-66
2023/08/15 06:01:50;;;;;;;11.88;8.93;;;23.30;99.90;;;;;;4976543;28;19918;-66
2023/08/15 06:04:15;;;;;;;;;;;23.30;99.90;;;;;;4960599;28;20030;-66
2023/08/15 06:06:41;;;;;;;14.75;9.02;;;23.30;99.90;;;;;;4959991;28;20374;-66
2023/08/15 06:09:07;;;;;;;;;;;23.30;99.90;;;;;;4997966;28;20030;-66
2023/08/15 06:11:32;;;;;;;11.57;9.65;;;23.40;99.90;;;;;;4998875;28;19916;-66
2023/08/15 06:13:58;;;;;;;;;;;23.30;99.90;;;;;;4999902;28;20046;-66
2023/08/15 06:16:23;;;;;;;14.13;9.70;;;23.30;99.90;;;;;;4998997;28;20243;-65
2023/08/15 06:18:49;;;;;;;;;;;23.20;99.90;;;;;;4997880;28;20052;-66
2023/08/15 06:21:14;;;;;;;13.30;9.48;;;23.20;99.90;;;;;;4997634;28;19906;-66
2023/08/15 06:23:39;;;;;;;;;;;23.20;99.90;;;;;;4998508;28;20023;-66
2023/08/15 06:26:05;;;;;;;10.88;8.85;;;23.20;99.90;;;;;;4997494;28;19996;-67
2023/08/15 06:28:30;;;;;;;;;;;23.10;99.90;;;;;;4995836;28;20038;-65
2023/08/15 06:30:56;;;;;;;13.57;9.15;;;23.20;99.90;;;;;;4977771;28;19949;-65
2023/08/15 06:33:21;;;;;;;;;;;23.30;99.90;;;;;;4995930;28;20031;-65
2023/08/15 06:35:47;;;;;;;10.20;8.52;;;23.40;99.90;;;;;;4995282;28;20362;-66
2023/08/15 06:38:12;;;;;;;;;;;23.60;99.90;;;;;;4981641;28;20038;-66
2023/08/15 06:40:39;;;;;;;10.77;8.10;;;23.80;99.90;;;;;;4976000;28;19910;-66
2023/08/15 06:43:04;;;;;;;12.77;8.65;;;23.80;99.90;;;;;;4975528;28;20018;-65
2023/08/15 06:45:30;;;;;;;;;;;24.00;99.90;;;;;;4958687;28;20484;-65
2023/08/15 06:47:55;;;;;;;10.27;8.35;;;24.10;99.90;;;;;;4975734;28;19906;-65
2023/08/15 06:50:21;;;;;;;;;;;24.30;99.90;;;;;;4976140;28;20098;-65
2023/08/15 06:52:47;;;;;;;12.77;8.55;;;24.30;99.90;;;;;;4975293;28;20429;-66
2023/08/15 06:55:12;;;;;;;;;;;24.30;99.90;;;;;;4958448;28;20030;-65
2023/08/15 06:57:38;;;;;;;11.95;8.65;;;24.20;99.90;;;;;;4975449;28;19933;-66
2023/08/15 07:00:06;;;;;;;;;;;24.10;99.90;;;;;;4975800;28;20475;-65
2023/08/15 07:02:32;;;;;;;11.45;7.63;;;24.10;99.90;;;;;;4974932;28;20326;-66
2023/08/15 07:04:57;;;;;;;;;;;24.10;99.90;;;;;;4975517;28;20102;-66
2023/08/15 07:07:23;;;;;;;14.15;7.68;;;24.20;99.90;;;;;;4975175;28;20413;-65
2023/08/15 07:09:49;;;;;;;9.18;6.90;;;24.30;99.90;;;;;;4975214;28;20031;-65
2023/08/15 07:12:17;;;;;;;;;;;24.40;99.90;;;;;;4975335;28;20480;-67
2023/08/15 07:14:45;;;;;;;9.95;7.20;;;24.50;99.90;;;;;;4974976;28;19914;-67
2023/08/15 07:17:11;;;;;;;9.48;6.28;;;24.70;99.90;;;;;;4975258;28;20488;-65
2023/08/15 07:19:36;;;;;;;;;;;24.80;99.90;;;;;;4974697;28;20026;-66
2023/08/15 07:22:02;;;;;;;10.13;6.20;;;24.80;99.90;;;;;;4974864;28;20395;-65
2023/08/15 07:24:27;;;;;;;;;;;24.80;99.90;;;;;;4975253;28;20437;-67
2023/08/15 07:26:52;;;;;;;9.50;5.50;;;24.90;99.90;;;;;;4974983;28;20004;-67
2023/08/15 07:29:18;;;;;;;;;;;25.20;99.90;;;;;;4957948;28;20484;-67
2023/08/15 07:31:44;;;;;;;12.52;5.18;;;25.50;99.90;;;;;;4974917;28;20363;-65
2023/08/15 07:34:09;;;;;;;;;;;25.70;99.90;;;;;;4975635;28;20456;-66
2023/08/15 07:36:35;;;;;;;6.38;4.90;;;25.90;99.90;;;;;;4974854;28;19914;-65
2023/08/15 07:39:00;;;;;;;;;;;25.90;99.90;;;;;;4975003;28;20038;-66
2023/08/15 07:41:25;;;;;;;7.47;4.45;;;26.00;99.90;;;;;;4974641;28;19912;-66
2023/08/15 07:43:51;;;;;;;8.57;4.78;;;26.00;99.90;;;;;;4974760;28;20102;-66
2023/08/15 07:46:16;;;;;;;8.15;4.35;;;25.90;99.90;;;;;;4974724;28;20018;-65
2023/08/15 07:48:45;;;;;;;7.43;4.50;;;25.90;99.90;;;;;;4974679;28;20099;-67
2023/08/15 07:51:10;;;;;;;8.48;5.15;;;25.90;99.90;;;;;;4975003;28;20360;-67
2023/08/15 07:53:36;;;;;;;5.38;4.05;;;26.00;99.90;;;;;;4974241;28;20030;-67
2023/08/15 07:56:01;;;;;;;7.53;4.40;;;26.20;99.90;;;;;;4975562;28;20054;-66
2023/08/15 07:58:27;;;;;;;7.00;4.53;;;26.40;99.90;;;;;;4974800;28;20031;-66
2023/08/15 08:00:53;;;;;;;5.65;4.55;;;26.50;99.90;;;;;;4975278;28;20035;-67
2023/08/15 08:03:18;;;;;;;7.95;4.32;;;26.90;99.90;;;;;;4975594;28;20460;-66
2023/08/15 08:05:44;;;;;;;8.65;4.30;;;27.10;99.90;;;;;;4974746;28;20061;-65
2023/08/15 08:08:09;;;;;;;9.38;4.25;;;27.40;99.90;;;;;;4974406;28;20060;-66
2023/08/15 08:10:36;;;;;;;12.13;4.32;;;27.60;99.90;;;;;;4974509;28;20147;-66
2023/08/15 08:13:02;;;;;;;8.40;4.82;;;27.70;99.90;;;;;;4974423;28;20494;-66
2023/08/15 08:15:28;;;;;;;5.53;4.40;;;27.90;99.90;;;;;;4974541;28;20031;-66
2023/08/15 08:17:53;;;;;;;7.80;4.53;;;27.90;99.90;;;;;;4974427;28;20112;-66
2023/08/15 08:20:19;;;;;;;7.47;5.60;;;28.00;99.90;;;;;;4974121;28;20483;-66
2023/08/15 08:22:45;;;;;;;7.85;5.85;;;28.00;99.90;;;;;;4956832;28;20027;-66
2023/08/15 08:25:16;;;;;;;8.95;5.57;;;28.50;99.90;;;;;;4974531;28;20019;-66
2023/08/15 08:27:41;;;;;;;9.30;5.55;;;30.40;99.90;;;;;;4974785;28;20038;-66
2023/08/15 08:30:08;;;;;;;5.82;5.18;;;32.60;99.90;;;;;;4976686;28;20034;-66
2023/08/15 08:32:33;;;;;;;6.45;5.57;;;34.40;99.90;;;;;;4979581;28;20395;-66
2023/08/15 08:34:58;;;;;;;8.48;5.57;;;35.90;97.40;;;;;;4978103;28;20031;-66
2023/08/15 08:37:24;;;;;;;8.77;5.85;;;37.50;95.60;;;;;;4978007;28;20035;-66
2023/08/15 08:39:50;;;;;;;7.25;5.40;;;38.60;93.60;;;;;;4977602;28;20085;-66
2023/08/15 08:42:15;;;;;;;8.55;5.38;;;39.80;91.50;;;;;;4977745;28;20027;-66
2023/08/15 08:44:42;;;;;;;6.68;5.63;;;40.70;90.50;;;;;;4977786;28;20111;-66
2023/08/15 08:47:07;;;;;;;9.85;6.18;;;41.20;88.40;;;;;;4977585;28;20483;-66
2023/08/15 08:49:33;;;;;;;7.82;5.88;;;41.70;85.20;;;;;;4977634;28;20159;-66
2023/08/15 08:52:00;;;;;;;8.93;5.03;;;41.60;84.70;;;;;;4977739;28;20026;-67
2023/08/15 08:54:26;;;;;;;8.48;5.03;;;42.50;82.50;;;;;;4977371;28;20460;-67
2023/08/15 08:56:55;;;;;;;5.45;4.88;;;42.60;80.90;;;;;;4977612;28;20062;-66
2023/08/15 08:59:22;;;;;;;10.15;5.85;;;41.20;81.80;;;;;;4977431;28;20022;-65
2023/08/15 09:01:48;;;;;;;8.00;5.50;;;39.20;84.70;;;;;;4977389;28;20396;-66
2023/08/15 09:04:14;;;;;;;8.07;5.80;;;36.90;88.80;;;;;;4977709;28;20027;-66
2023/08/15 09:06:39;;;;;;;7.38;5.18;;;35.90;90.70;;;;;;4977608;28;20026;-67
2023/08/15 09:09:06;;;;;;;6.63;5.88;;;35.00;91.30;;;;;;4977550;28;20492;-67
2023/08/15 09:11:34;;;;;;;8.40;5.65;;;34.10;92.40;;;;;;4959965;28;20488;-66
2023/08/15 09:14:05;;;;;;;8.43;5.93;;;33.80;93.50;;;;;;4959960;28;20114;-66
2023/08/15 09:16:32;;;;;;;8.38;5.30;;;34.30;93.00;;;;;;4977786;28;20038;-66
2023/08/15 09:19:03;;;;;;;8.27;6.18;;;34.20;93.10;;;;;;4977406;28;20459;-66
2023/08/15 09:21:29;;;;;;;8.65;5.72;;;34.40;92.70;;;;;;4977773;28;20030;-66
2023/08/15 09:23:59;;;;;;;8.75;5.60;;;35.00;92.30;;;;;;4977096;28;20030;-66
2023/08/15 09:26:25;;;;;;;8.68;5.20;;;35.80;91.60;;;;;;4977071;28;20046;-67
2023/08/15 09:28:51;;;;;;;10.10;6.05;;;35.90;91.60;;;;;;4959683;28;20476;-66
2023/08/15 09:31:18;;;;;;;9.88;5.15;;;36.50;91.30;;;;;;4980832;28;20038;-66
2023/08/15 09:33:43;;;;;;;6.13;5.15;;;38.30;89.70;;;;;;4977903;28;20090;-65
2023/08/15 09:36:10;;;;;;;6.70;4.80;;;39.50;86.50;;;;;;4977164;28;20019;-66
2023/08/15 09:38:36;;;;;;;6.10;4.75;;;38.70;86.20;;;;;;4977283;28;20026;-66
2023/08/15 09:41:04;;;;;;;9.38;5.65;;;37.60;88.60;;;;;;4982483;28;20083;-67
2023/08/15 09:43:30;;;;;;;11.10;5.20;;;36.20;89.40;;;;;;4981118;28;20023;-66
2023/08/15 09:45:58;;;;;;;8.93;5.30;;;35.00;91.10;;;;;;4977017;28;20019;-67
2023/08/15 09:48:25;;;;;;;7.55;5.25;;;34.00;92.20;;;;;;4959446;28;20440;-66
2023/08/15 09:50:54;;;;;;;12.05;5.55;;;33.20;93.20;;;;;;4976690;28;20027;-66
2023/08/15 09:53:20;;;;;;;12.07;6.18;;;32.60;94.20;;;;;;4976695;28;20086;-67
2023/08/15 09:55:46;;;;;;;8.40;5.97;;;32.20;94.50;;;;;;4976856;28;20026;-66
2023/08/15 09:58:11;;;;;;;7.13;5.40;;;31.70;94.90;;;;;;4976618;28;20119;-66
2023/08/15 10:00:38;;;;;;;9.75;6.05;;;31.30;95.60;;;;;;4976817;28;20035;-67
2023/08/15 10:03:24;;;;;;;11.20;6.35;;;30.80;96.50;;;;;;4976882;28;20027;-67
2023/08/15 10:05:53;;;;;;;9.15;6.15;;;30.40;97.50;;;;;;4976661;28;20102;-66
2023/08/15 10:08:19;;;;;;;7.32;6.00;;;30.00;98.50;;;;;;4975447;28;20476;-67
2023/08/15 10:10:48;;;;;;;10.23;5.95;;;29.70;98.90;;;;;;4976674;28;20027;-66
2023/08/15 10:13:16;;;;;;;8.98;6.75;;;29.30;99.40;;;;;;4976665;28;20387;-67
2023/08/15 10:15:42;;;;;;;8.45;6.18;;;29.10;99.90;;;;;;4978148;28;20104;-66
2023/08/15 10:18:09;;;;;;;11.48;7.05;;;28.90;99.90;;;;;;4976461;28;20031;-66
2023/08/15 10:20:36;;;;;;;9.73;5.75;;;28.80;99.90;;;;;;4976011;28;20027;-65
2023/08/15 10:23:02;;;;;;;12.55;6.53;;;28.90;99.90;;;;;;4975906;28;20420;-65
2023/08/15 10:25:27;;;;;;;9.88;6.22;;;28.90;99.90;;;;;;4976139;28;20078;-65
2023/08/15 10:27:55;;;;;;;12.32;6.50;;;28.80;99.90;;;;;;4958736;28;20030;-65
2023/08/15 10:30:33;;;;;;;13.02;8.13;;;28.80;99.90;;;;;;4975861;28;20044;-66
2023/08/15 10:33:00;;;;;;;9.57;6.78;;;28.80;99.90;;;;;;4976252;28;20334;-65
2023/08/15 10:35:27;;;;;;;9.23;6.22;;;28.80;99.90;;;;;;4975857;28;20388;-66
2023/08/15 10:37:55;;;;;;;9.52;5.97;;;28.60;99.90;;;;;;4976059;28;20074;-66
2023/08/15 10:40:21;;;;;;;13.20;8.57;;;28.50;99.90;;;;;;4975522;28;20035;-66
2023/08/15 10:43:01;;;;;;;13.90;9.15;;;28.50;99.90;;;;;;4975819;28;20166;-66
2023/08/15 10:45:30;;;;;;;9.32;5.65;;;28.30;99.90;;;;;;4975563;28;20069;-66
2023/08/15 10:47:56;;;;;;;8.77;5.95;;;28.40;99.90;;;;;;4975664;28;20038;-66
2023/08/15 10:50:23;;;;;;;9.73;6.47;;;28.40;99.90;;;;;;4976074;28;20507;-66
2023/08/15 10:53:05;;;;;;;7.75;6.50;;;28.30;99.90;;;;;;4976363;28;20575;-66
2023/08/15 10:55:34;;;;;;;8.55;6.25;;;28.10;99.90;;;;;;4975607;28;20029;-65
2023/08/15 10:58:06;;;;;;;8.82;6.47;;;28.00;99.90;;;;;;4975553;28;20034;-66
2023/08/15 11:00:32;;;;;;;11.48;6.30;;;27.90;99.90;;;;;;4958200;28;20109;-67
2023/08/15 11:02:59;;;;;;;9.88;7.13;;;28.10;99.90;;;;;;4975457;28;20034;-66
2023/08/15 11:05:25;;;;;;;9.40;5.65;;;28.50;99.90;;;;;;4975880;28;20045;-66
2023/08/15 11:07:50;;;;;;;9.82;5.90;;;28.80;99.90;;;;;;4975167;28;20019;-66
2023/08/15 11:10:16;;;;;;;12.15;6.20;;;29.00;99.90;;;;;;4974941;28;20440;-66
2023/08/15 11:12:48;;;;;;;13.88;5.97;;;29.20;99.90;;;;;;4975230;28;20033;-65
2023/08/15 11:15:15;;;;;;;7.63;5.82;;;29.50;99.90;;;;;;4974995;28;20113;-65
2023/08/15 11:17:47;;;;;;;10.52;5.40;;;29.60;99.90;;;;;;4975026;28;20042;-66
2023/08/15 11:20:13;;;;;;;7.03;5.85;;;29.70;99.90;;;;;;4974991;28;20078;-66
2023/08/15 11:22:40;;;;;;;10.20;6.65;;;29.70;99.90;;;;;;4974753;28;20077;-66
2023/08/15 11:25:08;;;;;;;9.95;6.40;;;29.90;99.90;;;;;;4958093;28;20359;-66
2023/08/15 11:27:45;;;;;;;10.98;6.22;;;30.20;99.90;;;;;;4974903;28;20023;-66
2023/08/15 11:30:11;;;;;;;7.35;5.75;;;30.70;99.90;;;;;;4975280;28;20050;-65
2023/08/15 11:32:39;;;;;;;14.23;6.20;;;31.00;99.90;;;;;;4976084;28;20030;-65
2023/08/15 11:35:06;;;;;;;10.75;6.00;;;31.30;99.90;;;;;;4959536;28;20034;-66
2023/08/15 11:37:31;;;;;;;10.40;6.15;;;31.40;99.40;;;;;;4976086;28;20031;-64
2023/08/15 11:39:57;;;;;;;7.57;6.20;;;31.50;99.30;;;;;;4974991;28;20031;-66
2023/08/15 11:42:22;;;;;;;12.25;6.28;;;31.50;99.00;;;;;;4974799;28;20034;-65
2023/08/15 11:45:20;;;;;;;8.70;5.75;;;31.60;99.00;;;;;;4975394;28;20489;-66
2023/08/15 11:48:15;;;;;;;7.93;6.18;;;31.70;98.70;;;;;;4974872;28;20039;-65
2023/08/15 11:50:41;;;;;;;7.65;6.25;;;31.20;98.80;;;;;;4898221;29;20040;-65
2023/08/15 11:53:11;;;;;;;10.93;6.78;;;30.80;99.30;;;;;;4897192;29;20355;-66
2023/08/15 11:55:38;;;;;;;7.93;5.40;;;30.30;99.90;;;;;;4880927;29;20092;-65
2023/08/15 11:58:24;;;;;;;11.57;6.32;;;30.10;99.90;;;;;;4897288;29;20514;-65
2023/08/15 12:00:55;;;;;;;10.20;6.13;;;30.20;99.80;;;;;;4896419;29;20068;-66
2023/08/15 12:03:20;;;;;;;8.07;6.05;;;30.30;99.90;;;;;;4896382;29;20037;-66
2023/08/15 12:05:50;;;;;;;10.60;5.57;;;30.20;99.90;;;;;;4879890;29;20115;-66
2023/08/15 12:08:19;;;;;;;11.13;5.47;;;30.30;99.90;;;;;;4896427;29;20115;-66
2023/08/15 12:10:45;;;;;;;7.28;4.95;;;30.30;99.90;;;;;;4880388;29;20401;-65
2023/08/15 12:13:11;;;;;;;7.40;4.68;;;30.40;99.80;;;;;;4896598;29;20032;-65
2023/08/15 12:15:37;;;;;;;8.18;4.00;;;30.50;99.40;;;;;;4896827;29;20137;-65
2023/08/15 12:18:02;;;;;;;7.72;4.50;;;30.40;98.70;;;;;;4896599;29;20495;-66
2023/08/15 12:20:28;;;;;;;6.10;3.80;;;30.30;98.50;;;;;;4896059;29;20072;-67
2023/08/15 12:22:53;;;;;;;5.07;3.63;;;30.10;98.40;;;;;;4896202;29;20111;-66
2023/08/15 12:25:19;;;;;;;7.40;4.78;;;30.00;97.60;;;;;;4895746;29;20037;-66
2023/08/15 12:27:44;;;;;;;6.90;4.50;;;29.70;97.10;;;;;;4943473;29;20114;-65
2023/08/15 12:30:10;;;;;;;8.07;3.33;;;29.60;97.50;;;;;;4955072;28;20042;-66
2023/08/15 12:32:36;;;;;;;5.10;3.00;;;29.30;97.80;;;;;;4955143;28;20035;-65
2023/08/15 12:35:01;;;;;;;5.00;2.90;;;29.30;97.80;;;;;;4956149;29;20042;-66
2023/08/15 12:37:27;;;;;;;5.22;2.30;;;29.50;98.10;;;;;;4960723;28;20038;-66
2023/08/15 12:39:53;;;;;;;4.65;2.13;;;29.60;96.90;;;;;;4974250;28;20023;-66
2023/08/15 12:42:18;;;;;;;2.95;1.75;;;29.50;96.60;;;;;;4974390;28;20022;-68
2023/08/15 12:44:44;;;;;;;6.10;2.38;;;29.50;96.50;;;;;;4974470;28;20364;-67
2023/08/15 12:47:10;;;;;;;4.97;2.15;;;29.50;96.60;;;;;;4974653;28;20054;-66
2023/08/15 12:49:38;;;;;;;3.92;2.05;;;29.50;96.60;;;;;;4956805;28;20034;-65
2023/08/15 12:52:06;;;;;;;5.10;2.05;;;29.60;96.60;;;;;;4974474;28;20031;-66
2023/08/15 12:54:32;;;;;;;7.60;2.28;;;29.50;96.50;;;;;;4956358;28;20030;-66
2023/08/15 12:56:58;;;;;;;4.57;2.17;;;29.60;96.80;;;;;;4974161;28;20023;-66
2023/08/15 12:59:24;;;;;;;4.30;2.20;;;29.40;96.60;;;;;;4973997;28;20035;-65
2023/08/15 13:01:50;;;;;;;3.88;2.15;;;29.50;96.50;;;;;;4973601;28;20042;-66
2023/08/15 13:04:15;;;;;;;3.72;2.08;;;29.60;96.60;;;;;;4973556;28;20105;-65
2023/08/15 13:06:41;;;;;;;5.22;2.53;;;29.80;96.40;;;;;;4973376;28;20023;-66
2023/08/15 13:09:08;;;;;;;3.03;1.90;;;30.00;96.40;;;;;;4972957;28;20041;-66
2023/08/15 13:11:35;;;;;;;2.03;1.60;;;30.10;96.40;;;;;;4973155;28;20038;-67
2023/08/15 13:14:02;;;;;;;4.32;1.85;;;30.10;96.40;;;;;;4973151;28;20027;-65
2023/08/15 13:16:27;;;;;;;3.03;1.80;;;30.10;96.30;;;;;;4973521;28;20019;-67
2023/08/15 13:18:53;;;;;;;5.82;2.42;;;30.10;96.30;;;;;;4976445;28;20503;-65
2023/08/15 13:21:18;;;;;;;3.40;2.13;;;30.10;96.50;;;;;;4977007;28;20026;-66
2023/08/15 13:23:44;;;;;;;4.30;1.95;;;30.10;96.20;;;;;;4976142;28;20030;-67
2023/08/15 13:26:10;;;;;;;3.95;1.70;;;30.00;96.10;;;;;;4976257;28;20023;-65
2023/08/15 13:28:35;;;;;;;2.78;1.80;;;30.20;96.20;;;;;;4976268;28;20035;-66
2023/08/15 13:31:01;;;;;;;3.13;1.85;;;30.30;95.90;;;;;;4976062;28;20029;-66
2023/08/15 13:33:26;;;;;;;5.70;1.90;;;30.30;95.90;;;;;;4976356;28;20030;-66
2023/08/15 13:35:52;;;;;;;4.63;1.73;;;30.20;96.10;;;;;;4976476;28;20109;-66
2023/08/15 13:38:17;;;;;;;3.35;2.15;;;30.30;95.90;;;;;;4977014;28;20030;-66
2023/08/15 13:40:43;;;;;;;4.38;2.45;;;30.20;95.90;;;;;;4976918;28;20046;-65
2023/08/15 13:43:08;;;;;;;2.70;1.65;;;30.10;96.10;;;;;;4975998;28;20023;-66
2023/08/15 13:45:34;;;;;;;4.20;2.00;;;29.80;96.40;;;;;;4976586;28;20109;-66
2023/08/15 13:48:00;;;;;;;2.28;1.85;;;29.60;96.50;;;;;;4976266;28;20022;-66
2023/08/15 13:50:25;;;;;;;3.08;1.50;;;29.60;96.50;;;;;;4976184;28;20034;-65
2023/08/15 13:52:51;;;;;;;4.38;1.70;;;29.60;96.80;;;;;;4976182;28;20499;-66
2023/08/15 13:55:17;;;;;;;2.85;1.63;;;29.70;96.80;;;;;;4976151;28;20452;-66
2023/08/15 13:57:42;;;;;;;2.97;1.90;;;29.80;96.80;;;;;;4976279;28;20027;-66
2023/08/15 14:00:09;;;;;;;5.82;1.77;;;29.60;97.20;;;;;;4975308;28;20038;-66
2023/08/15 14:02:34;;;;;;;2.60;1.80;;;29.50;96.80;;;;;;4923181;28;1046044;-65
2023/08/15 14:05:00;;;;;;;3.92;1.73;;;29.60;96.80;;;;;;4976756;28;20355;-67
2023/08/15 14:07:25;;;;;;;2.20;1.98;;;29.70;96.60;;;;;;4971347;28;20032;-66
2023/08/15 14:09:51;;;;;;;3.45;1.80;;;29.70;96.60;;;;;;4957282;28;20039;-67
2023/08/15 14:12:16;;;;;;;5.97;2.00;;;29.60;96.80;;;;;;4957105;28;20023;-66
2023/08/15 14:14:42;;;;;;;3.10;1.70;;;29.50;96.90;;;;;;4957663;29;20023;-66
2023/08/15 14:17:08;;;;;;;2.20;1.95;;;29.50;97.10;;;;;;4957024;29;20019;-66
2023/08/15 14:19:33;;;;;;;2.88;1.63;;;29.40;97.00;;;;;;4956610;28;20035;-65
2023/08/15 14:21:59;;;;;;;6.10;2.00;;;29.60;96.40;;;;;;4956621;28;20027;-66
2023/08/15 14:24:24;;;;;;;3.70;1.83;;;29.50;96.20;;;;;;4956426;28;20019;-67
2023/08/15 14:26:50;;;;;;;2.03;1.63;;;29.50;96.60;;;;;;4956913;28;20031;-66
2023/08/15 14:29:15;;;;;;;4.60;2.17;;;29.50;96.50;;;;;;4956056;28;20031;-66
2023/08/15 14:31:41;;;;;;;3.15;1.85;;;29.50;96.70;;;;;;4956772;28;20106;-67
2023/08/15 14:34:08;;;;;;;2.72;1.77;;;29.60;96.40;;;;;;4956875;29;20094;-66
2023/08/15 14:36:35;;;;;;;3.25;1.80;;;29.90;96.10;;;;;;4956556;29;20408;-68
2023/08/15 14:39:01;;;;;;;4.53;1.88;;;30.00;96.00;;;;;;4957172;28;20034;-66
2023/08/15 14:41:27;;;;;;;3.92;1.80;;;30.10;95.80;;;;;;4976111;28;20030;-66
2023/08/15 14:43:52;;;;;;;3.92;1.98;;;30.00;95.70;;;;;;4975719;28;20082;-66
2023/08/15 14:46:18;;;;;;;4.40;1.40;;;29.80;96.10;;;;;;4975877;28;20027;-66
2023/08/15 14:48:43;;;;;;;2.97;1.60;;;29.70;95.80;;;;;;4975678;28;20029;-66
2023/08/15 14:51:09;;;;;;;3.90;1.60;;;29.70;95.80;;;;;;4975607;28;20035;-66
2023/08/15 14:53:35;;;;;;;5.00;1.60;;;29.60;95.90;;;;;;4975442;28;20377;-66
2023/08/15 14:56:00;;;;;;;2.40;1.60;;;29.50;96.00;;;;;;4975195;28;20528;-65
2023/08/15 14:58:27;;;;;;;1.83;1.55;;;29.30;96.10;;;;;;4976137;28;20438;-66
2023/08/15 15:00:55;;;;;;;2.22;1.60;;;29.30;96.40;;;;;;4975155;28;20480;-66
2023/08/15 15:03:20;;;;;;;2.15;1.63;;;29.10;96.50;;;;;;4958160;28;20025;-67
2023/08/15 15:05:46;;;;;;;2.72;1.60;;;28.90;96.90;;;;;;4975604;28;20023;-64
2023/08/15 15:08:12;;;;;;;4.88;1.60;;;28.80;96.80;;;;;;4976059;28;20019;-66
2023/08/15 15:10:38;;;;;;;3.80;1.42;;;28.70;96.70;;;;;;4974940;28;20022;-67
2023/08/15 15:13:03;;;;;;;4.47;1.83;;;28.60;96.80;;;;;;4975534;28;20030;-65
2023/08/15 15:15:29;;;;;;;2.38;1.70;;;28.50;96.90;;;;;;4975549;28;20047;-64
2023/08/15 15:17:54;;;;;;;3.00;1.77;;;28.50;97.20;;;;;;4975429;28;20027;-65
2023/08/15 15:20:20;;;;;;;2.15;1.50;;;28.50;97.20;;;;;;4975067;28;20062;-65
2023/08/15 15:22:46;;;;;;;2.85;1.80;;;28.50;97.20;;;;;;4975128;28;20089;-65
2023/08/15 15:25:12;;;;;;;1.95;1.30;;;28.40;97.50;;;;;;4957358;28;20019;-65
2023/08/15 15:27:37;;;;;;;2.50;1.33;;;28.40;97.50;;;;;;4975395;28;20027;-66
2023/08/15 15:30:04;;;;;;;2.72;1.77;;;28.50;97.10;;;;;;4975242;28;20049;-66
2023/08/15 15:32:29;;;;;;;1.95;1.50;;;28.40;97.20;;;;;;4974957;28;20031;-66
2023/08/15 15:34:55;;;;;;;3.75;1.77;;;28.40;97.40;;;;;;4975185;28;20042;-65
2023/08/15 15:37:20;;;;;;;1.50;1.40;;;28.30;97.60;;;;;;4975303;28;20034;-66
2023/08/15 15:39:46;;;;;;;4.20;1.52;;;28.20;97.80;;;;;;4974275;28;20031;-65
2023/08/15 15:42:12;;;;;;;1.80;1.30;;;28.20;97.00;;;;;;4974980;28;20480;-66
2023/08/15 15:44:38;;;;;;;1.33;1.13;;;28.20;96.90;;;;;;4974936;28;20026;-66
2023/08/15 15:47:03;;;;;;;1.75;1.25;;;28.10;97.20;;;;;;4974700;28;20030;-66
2023/08/15 15:49:29;;;;;;;2.75;1.20;;;28.30;97.70;;;;;;4974763;28;20026;-65
2023/08/15 15:51:54;;;;;;;2.17;1.50;;;28.30;98.10;;;;;;4974976;28;20035;-64
2023/08/15 15:54:20;;;;;;;1.95;1.42;;;28.20;98.50;;;;;;4974767;28;20039;-64
2023/08/15 15:56:46;;;;;;;3.67;1.50;;;28.20;98.90;;;;;;4975203;28;20037;-66
2023/08/15 15:59:11;;;;;;;2.92;1.30;;;28.20;98.80;;;;;;4975499;28;20023;-65
2023/08/15 16:01:37;;;;;;;2.28;1.60;;;28.10;99.10;;;;;;4974450;28;20042;-66
2023/08/15 16:04:03;;;;;;;1.80;1.52;;;28.00;98.80;;;;;;4975183;28;20027;-65
2023/08/15 16:06:28;;;;;;;1.60;1.40;;;28.00;98.80;;;;;;4957534;28;20022;-65
2023/08/15 16:08:55;;;;;;;2.42;1.60;;;28.10;98.80;;;;;;4975849;28;20476;-65
2023/08/15 16:11:20;;;;;;;2.13;1.38;;;28.00;98.90;;;;;;4976623;28;20476;-64
2023/08/15 16:13:46;;;;;;;1.50;1.30;;;28.00;99.00;;;;;;4958208;28;20033;-66
2023/08/15 16:16:11;;;;;;;3.20;1.50;;;27.90;98.90;;;;;;4975166;28;20035;-66
2023/08/15 16:18:37;;;;;;;2.75;1.20;;;27.70;98.80;;;;;;4975111;28;20035;-66
2023/08/15 16:21:02;;;;;;;2.45;1.50;;;27.70;98.90;;;;;;4957051;28;20488;-66
2023/08/15 16:23:28;;;;;;;2.53;1.60;;;27.70;99.10;;;;;;4974401;28;20503;-66
2023/08/15 16:25:53;;;;;;;2.45;1.92;;;27.60;99.70;;;;;;4973978;28;20073;-66
2023/08/15 16:28:19;;;;;;;1.42;1.30;;;27.50;99.80;;;;;;4974191;28;20023;-66
2023/08/15 16:30:44;;;;;;;2.88;1.30;;;27.30;99.90;;;;;;4973960;28;20535;-67
2023/08/15 16:33:10;;;;;;;3.63;1.73;;;27.20;99.90;;;;;;4974146;28;20062;-66
2023/08/15 16:35:36;;;;;;;2.58;2.00;;;27.20;99.90;;;;;;4974142;28;20027;-66
2023/08/15 16:38:01;;;;;;;3.03;1.83;;;27.20;99.90;;;;;;4974490;28;20034;-65
2023/08/15 16:40:27;;;;;;;2.40;1.42;;;27.30;99.90;;;;;;4973603;28;20069;-65
2023/08/15 16:43:17;;;;;;;1.77;1.38;;;27.30;99.90;;;;;;4974131;28;20030;-66
2023/08/15 16:45:45;;;;;;;3.65;1.70;;;27.20;99.90;;;;;;4974297;28;20054;-66
2023/08/15 16:48:11;;;;;;;2.08;1.67;;;27.10;99.90;;;;;;4973866;28;20058;-66